CYXP

Pangnirtung Airport

Pangnirtung, Canada
METAR CYXP 192000Z 26008KT 15SM OVC050 03/02 A2954 RMK SC8 CIG ESTD SLP006
Observed Flight Rules
Jun-19 @ 20:00 UTC (18 minutes ago) Visual Flight Rules
Wind Visibility Clouds
260° at 8 knots 15 miles
  • Overcast at 5,000' AGL
Temperatures Readings
Current 3°C / 37°F
Dewpoint 2°C / 36°F
Humidity 93%
Altimeter 29.54" Hg
Pressure 1000.6 hPa
Elevation 23
METAR CYXP 192000Z 26008KT 15SM OVC050 03/02 A2954 RMK SC8 CIG ESTD SLP006
Observed Flight Rules
Jun-19 @ 20:00 UTC
(18 minutes ago)
VFR
Wind Visibility
260° at 8 knots 15 miles
Clouds
  • Overcast at 5,000' AGL
Temperature Dewpoint
3°C / 37°F 2°C / 36°F
Humidity Altimeter Pressure
93% 29.54" Hg 1000.6 hPa